Princeton, Missouri
Current Conditions -  °F | °C
As of 3:53 PM on Thursday 27 Nov 2014 (Local Time) from KLWD Reporting Station
Overcast Overcast  
Wind Chill: -10°   Ceiling: 6000
Heat Index: -6°   Visibility: 10mi
Dew Point: -12°   Wind: 5mph
Humidity: 63%   Direction: 70°ENE
Pressure: 30.42"   Gusts: NA
Location:  40.4°N, 93.58°W
Report Text: KLWD 272153Z AUTO 07004KT 10SM OVC060 M06/M12 A3042 RMK AO2 SLP317 T10611122
Loading
Personal Weather Stations






























Interactive Weather Map New forecast layout! Learn more

10-Day Weather Forecast

Advertisements
Track Severe Weather on mobile